Time;durP1;ratioP1;P1;durP2;ratioP2;P2;SDS_P1;SDS_P2;PMS_P1;PMS_P2;Temp;Humidity;BMP_temperature;BMP_pressure;BME280_temperature;BME280_humidity;BME280_pressure;Samples;Min_cycle;Max_cycle;Signal;HPM_P1;HPM_P2
2022/04/13 00:01:28;;;;;;;;;19.00;15.00;;;;;;;;5083244;27;51701;-46
2022/04/13 00:04:12;;;;;;;;;17.00;14.00;;;;;;;;5078816;27;51170;-47
2022/04/13 00:06:57;;;;;;;;;18.25;15.00;;;;;;;;5083367;27;51052;-45
2022/04/13 00:09:42;;;;;;;;;16.75;16.25;;;;;;;;5083049;27;51067;-47
2022/04/13 00:12:27;;;;;;;;;17.00;14.50;;;;;;;;5082815;27;51287;-49
2022/04/13 00:15:12;;;;;;;;;16.25;14.25;;;;;;;;5083527;27;51130;-45
2022/04/13 00:17:57;;;;;;;;;22.50;17.00;;;;;;;;5082827;27;51173;-44
2022/04/13 00:20:42;;;;;;;;;22.50;17.75;;;;;;;;5082924;27;51195;-44
2022/04/13 00:23:27;;;;;;;;;18.25;18.25;;;;;;;;5083044;27;51090;-47
2022/04/13 00:26:23;;;;;;;;;29.75;20.25;;;;;;;;5067287;27;51179;-45
2022/04/13 00:29:07;;;;;;;;;24.50;20.75;;;;;;;;5082914;27;50918;-45
2022/04/13 00:31:53;;;;;;;;;26.25;21.50;;;;;;;;5082900;27;51121;-48
2022/04/13 00:34:39;;;;;;;;;22.50;20.00;;;;;;;;5082398;27;51036;-44
2022/04/13 00:37:23;;;;;;;;;24.25;20.75;;;;;;;;5082770;27;51173;-44
2022/04/13 00:40:11;;;;;;;;;23.25;20.75;;;;;;;;5082947;27;51056;-46
2022/04/13 00:42:55;;;;;;;;;25.00;22.75;;;;;;;;5082612;27;51661;-45
2022/04/13 00:45:48;;;;;;;;;26.75;20.00;;;;;;;;5082431;27;51164;-44
2022/04/13 00:48:39;;;;;;;;;22.50;20.25;;;;;;;;5082404;27;51003;-45
2022/04/13 00:51:24;;;;;;;;;21.00;20.00;;;;;;;;5067117;27;51062;-46
2022/04/13 00:54:12;;;;;;;;;21.50;14.75;;;;;;;;5082556;27;51004;-47
2022/04/13 00:56:57;;;;;;;;;24.00;16.25;;;;;;;;5082146;27;51129;-45
2022/04/13 00:59:43;;;;;;;;;18.50;15.75;;;;;;;;5082222;27;51348;-50
2022/04/13 01:02:29;;;;;;;;;17.00;15.00;;;;;;;;5082238;27;51121;-44
2022/04/13 01:05:15;;;;;;;;;18.25;16.25;;;;;;;;5082390;27;51005;-49
2022/04/13 01:07:59;;;;;;;;;18.50;14.75;;;;;;;;5081557;27;51495;-45
2022/04/13 01:10:47;;;;;;;;;20.25;16.75;;;;;;;;5081560;27;51111;-48
2022/04/13 01:13:39;;;;;;;;;19.25;16.50;;;;;;;;5081864;27;51461;-46
2022/04/13 01:16:24;;;;;;;;;15.50;13.50;;;;;;;;5081598;27;51116;-45
2022/04/13 01:19:14;;;;;;;;;20.50;18.25;;;;;;;;5081288;27;51193;-48
2022/04/13 01:22:18;;;;;;;;;22.25;15.25;;;;;;;;5081361;27;51948;-44
2022/04/13 01:25:02;;;;;;;;;16.00;15.25;;;;;;;;5081643;27;51131;-46
2022/04/13 01:27:47;;;;;;;;;20.00;14.25;;;;;;;;5081434;27;51155;-46
2022/04/13 01:30:31;;;;;;;;;20.25;16.50;;;;;;;;5081724;27;51181;-45
2022/04/13 01:33:17;;;;;;;;;18.25;16.50;;;;;;;;5081273;27;51081;-48
2022/04/13 01:36:02;;;;;;;;;19.50;18.00;;;;;;;;5081429;27;51195;-47
2022/04/13 01:38:47;;;;;;;;;20.75;17.00;;;;;;;;5075925;27;51146;-46
2022/04/13 01:41:31;;;;;;;;;22.00;18.75;;;;;;;;5081402;27;51171;-46
2022/04/13 01:44:15;;;;;;;;;17.75;17.75;;;;;;;;5080962;27;51912;-48
2022/04/13 01:47:00;;;;;;;;;19.25;18.75;;;;;;;;5081266;27;51110;-45
2022/04/13 01:49:44;;;;;;;;;22.75;16.25;;;;;;;;5081119;27;51465;-48
2022/04/13 01:52:31;;;;;;;;;21.50;18.75;;;;;;;;5080908;27;51019;-49
2022/04/13 01:55:16;;;;;;;;;19.00;18.00;;;;;;;;5074169;27;52540;-45
2022/04/13 01:58:00;;;;;;;;;19.50;17.50;;;;;;;;5081158;27;51139;-45
2022/04/13 02:00:44;;;;;;;;;18.50;14.75;;;;;;;;5081181;27;51203;-47
2022/04/13 02:03:30;;;;;;;;;19.50;18.25;;;;;;;;5080972;27;51522;-45
2022/04/13 02:06:14;;;;;;;;;18.25;16.00;;;;;;;;5081080;27;51067;-47
2022/04/13 02:08:59;;;;;;;;;17.25;16.50;;;;;;;;5080673;27;51409;-45
2022/04/13 02:11:44;;;;;;;;;14.75;13.50;;;;;;;;5080481;27;51126;-47
2022/04/13 02:14:29;;;;;;;;;15.50;15.25;;;;;;;;5080697;27;51404;-44
2022/04/13 02:17:18;;;;;;;;;20.75;16.50;;;;;;;;5080771;27;51074;-48
2022/04/13 02:20:03;;;;;;;;;17.50;13.25;;;;;;;;5080914;27;51210;-46
2022/04/13 02:22:47;;;;;;;;;19.00;16.75;;;;;;;;5079276;27;51554;-46
2022/04/13 02:25:35;;;;;;;;;22.00;17.50;;;;;;;;5080429;27;51196;-45
2022/04/13 02:28:19;;;;;;;;;17.75;16.50;;;;;;;;5080547;27;51160;-45
2022/04/13 02:31:04;;;;;;;;;20.00;18.00;;;;;;;;5080391;27;51020;-46
2022/04/13 02:33:53;;;;;;;;;22.50;18.75;;;;;;;;5080211;27;51472;-45
2022/04/13 02:36:37;;;;;;;;;24.00;20.75;;;;;;;;5080231;27;51074;-47
2022/04/13 02:39:21;;;;;;;;;24.75;21.00;;;;;;;;5080388;27;51081;-44
2022/04/13 02:42:05;;;;;;;;;20.75;18.50;;;;;;;;5080080;27;51099;-44
2022/04/13 02:44:50;;;;;;;;;23.75;18.25;;;;;;;;5080263;27;51126;-48
2022/04/13 02:47:35;;;;;;;;;23.00;18.25;;;;;;;;5080007;27;51052;-46
2022/04/13 02:50:20;;;;;;;;;21.00;17.75;;;;;;;;5080062;27;51108;-48
2022/04/13 02:53:04;;;;;;;;;15.50;15.50;;;;;;;;5079983;27;51651;-48
2022/04/13 02:55:51;;;;;;;;;21.75;18.00;;;;;;;;5080100;27;51081;-48
2022/04/13 02:58:35;;;;;;;;;18.00;16.75;;;;;;;;5079957;27;51339;-45
2022/04/13 03:01:19;;;;;;;;;19.75;17.00;;;;;;;;5080118;27;51301;-44
2022/04/13 03:04:04;;;;;;;;;22.00;19.25;;;;;;;;5080201;27;52050;-47
2022/04/13 03:06:48;;;;;;;;;24.25;19.75;;;;;;;;5076315;27;51070;-45
2022/04/13 03:09:33;;;;;;;;;22.00;17.75;;;;;;;;5080261;27;51021;-47
2022/04/13 03:12:17;;;;;;;;;31.00;23.50;;;;;;;;5079396;27;51529;-46
2022/04/13 03:15:07;;;;;;;;;27.00;23.25;;;;;;;;5079577;27;51192;-46
2022/04/13 03:17:53;;;;;;;;;27.00;23.50;;;;;;;;5079826;27;51396;-47
2022/04/13 03:20:37;;;;;;;;;25.00;22.00;;;;;;;;5079878;27;51188;-47
2022/04/13 03:23:21;;;;;;;;;22.00;21.00;;;;;;;;5079320;27;51614;-46
2022/04/13 03:26:07;;;;;;;;;32.00;20.75;;;;;;;;5079499;27;51111;-47
2022/04/13 03:28:52;;;;;;;;;30.25;24.00;;;;;;;;5079579;27;51550;-47
2022/04/13 03:31:36;;;;;;;;;35.75;28.50;;;;;;;;5079182;27;51104;-47
2022/04/13 03:34:20;;;;;;;;;33.75;29.75;;;;;;;;5079502;27;51152;-45
2022/04/13 03:37:08;;;;;;;;;48.50;34.75;;;;;;;;5079450;27;51542;-47
2022/04/13 03:39:52;;;;;;;;;43.50;32.25;;;;;;;;5079472;27;51451;-49
2022/04/13 03:42:36;;;;;;;;;52.50;39.50;;;;;;;;5064055;28;51064;-45
2022/04/13 03:45:20;;;;;;;;;44.25;32.50;;;;;;;;5079419;28;51012;-44
2022/04/13 03:48:05;;;;;;;;;44.75;35.00;;;;;;;;5079371;28;51439;-46
2022/04/13 03:50:50;;;;;;;;;45.00;34.75;;;;;;;;5079339;28;51113;-46
2022/04/13 03:53:35;;;;;;;;;37.50;32.75;;;;;;;;5079375;28;51101;-45
2022/04/13 03:56:25;;;;;;;;;53.25;38.75;;;;;;;;5079118;28;51247;-46
2022/04/13 03:59:09;;;;;;;;;58.50;43.25;;;;;;;;5078441;28;51118;-45
2022/04/13 04:01:54;;;;;;;;;55.25;41.75;;;;;;;;5078998;28;51570;-48
2022/04/13 04:04:38;;;;;;;;;59.00;47.25;;;;;;;;5079064;28;51241;-46
2022/04/13 04:07:25;;;;;;;;;48.00;38.00;;;;;;;;5079013;28;51130;-46
2022/04/13 04:10:09;;;;;;;;;34.75;30.50;;;;;;;;5079426;28;50938;-46
2022/04/13 04:12:55;;;;;;;;;27.25;26.75;;;;;;;;5078995;28;51640;-45
2022/04/13 04:15:41;;;;;;;;;26.25;24.00;;;;;;;;5078846;28;51134;-45
2022/04/13 04:18:25;;;;;;;;;30.00;26.25;;;;;;;;5079404;28;51670;-48
2022/04/13 04:21:10;;;;;;;;;30.00;28.50;;;;;;;;5078898;28;51137;-45
2022/04/13 04:23:54;;;;;;;;;28.00;26.50;;;;;;;;5079367;28;51096;-47
2022/04/13 04:26:38;;;;;;;;;33.25;25.25;;;;;;;;5078861;28;51545;-48
2022/04/13 04:29:25;;;;;;;;;35.00;30.00;;;;;;;;5079130;28;51041;-47
2022/04/13 04:32:10;;;;;;;;;32.00;26.50;;;;;;;;5078805;28;51147;-44
2022/04/13 04:34:54;;;;;;;;;35.00;29.75;;;;;;;;5079021;28;51448;-46
2022/04/13 04:37:39;;;;;;;;;28.75;26.75;;;;;;;;5078922;28;51553;-44
2022/04/13 04:40:23;;;;;;;;;36.75;31.25;;;;;;;;5078839;28;51056;-46
2022/04/13 04:43:08;;;;;;;;;35.75;30.25;;;;;;;;5078889;28;51066;-47
2022/04/13 04:45:52;;;;;;;;;37.50;31.00;;;;;;;;5074957;27;51145;-45
2022/04/13 04:48:39;;;;;;;;;41.50;33.50;;;;;;;;5082620;27;51015;-47
2022/04/13 04:51:23;;;;;;;;;29.00;27.75;;;;;;;;5082069;27;51170;-47
2022/04/13 04:54:08;;;;;;;;;37.50;30.25;;;;;;;;5082379;27;51258;-48
2022/04/13 04:56:52;;;;;;;;;45.75;35.25;;;;;;;;5082054;27;51360;-47
2022/04/13 04:59:37;;;;;;;;;37.50;32.25;;;;;;;;5082825;27;51015;-50
2022/04/13 05:02:22;;;;;;;;;38.75;34.25;;;;;;;;5082115;27;51110;-45
2022/04/13 05:05:08;;;;;;;;;46.50;36.25;;;;;;;;5082100;27;51200;-48
2022/04/13 05:07:52;;;;;;;;;46.50;36.00;;;;;;;;5082112;27;51552;-46
2022/04/13 05:10:37;;;;;;;;;44.75;34.50;;;;;;;;5081943;27;51106;-46
2022/04/13 05:13:21;;;;;;;;;37.75;33.00;;;;;;;;5082177;27;51138;-44
2022/04/13 05:16:06;;;;;;;;;43.75;35.25;;;;;;;;5081825;27;51579;-47
2022/04/13 05:18:50;;;;;;;;;35.50;31.75;;;;;;;;5082102;27;51102;-44
2022/04/13 05:21:35;;;;;;;;;45.75;34.75;;;;;;;;5081754;27;51067;-45
2022/04/13 05:24:20;;;;;;;;;49.75;37.50;;;;;;;;5081826;27;51118;-46
2022/04/13 05:27:04;;;;;;;;;52.50;39.25;;;;;;;;5081287;27;51446;-49
2022/04/13 05:29:53;;;;;;;;;45.00;38.00;;;;;;;;5081670;27;51153;-45
2022/04/13 05:32:47;;;;;;;;;43.50;33.50;;;;;;;;5081291;27;51643;-46
2022/04/13 05:35:31;;;;;;;;;43.25;34.75;;;;;;;;5081370;27;51151;-45
2022/04/13 05:38:16;;;;;;;;;48.50;39.00;;;;;;;;5081601;27;51082;-46
2022/04/13 05:41:00;;;;;;;;;49.25;39.00;;;;;;;;5081565;27;51471;-44
2022/04/13 05:43:45;;;;;;;;;51.25;40.25;;;;;;;;5081453;27;51235;-43
2022/04/13 05:46:29;;;;;;;;;54.25;43.50;;;;;;;;5081304;27;52114;-45
2022/04/13 05:49:14;;;;;;;;;54.00;43.50;;;;;;;;5081162;27;51110;-47
2022/04/13 05:52:00;;;;;;;;;51.50;40.75;;;;;;;;5081240;27;51094;-45
2022/04/13 05:54:54;;;;;;;;;58.00;46.75;;;;;;;;5081276;27;51237;-45
2022/04/13 05:57:46;;;;;;;;;57.75;46.00;;;;;;;;5081234;27;51543;-46
2022/04/13 06:00:34;;;;;;;;;58.00;44.50;;;;;;;;5080833;27;51121;-46
2022/04/13 06:03:31;;;;;;;;;53.75;40.75;;;;;;;;5081043;27;51233;-46
2022/04/13 06:06:16;;;;;;;;;56.75;45.50;;;;;;;;5080882;27;51410;-44
2022/04/13 06:09:00;;;;;;;;;57.75;44.25;;;;;;;;5081120;27;51559;-45
2022/04/13 06:11:45;;;;;;;;;65.50;52.00;;;;;;;;5080800;27;51257;-47
2022/04/13 06:14:29;;;;;;;;;58.50;47.75;;;;;;;;5081046;27;51118;-46
2022/04/13 06:17:13;;;;;;;;;64.25;50.25;;;;;;;;5073497;27;51422;-47
2022/04/13 06:19:59;;;;;;;;;56.00;44.25;;;;;;;;5071934;27;51304;-46
2022/04/13 06:22:44;;;;;;;;;55.25;45.25;;;;;;;;5078281;27;51057;-45
2022/04/13 06:25:28;;;;;;;;;66.00;52.00;;;;;;;;5078365;27;51166;-44
2022/04/13 06:28:13;;;;;;;;;72.25;56.50;;;;;;;;5078180;27;51215;-47
2022/04/13 06:30:58;;;;;;;;;66.25;49.75;;;;;;;;5078999;27;51118;-45
2022/04/13 06:33:42;;;;;;;;;62.25;47.75;;;;;;;;5076163;27;51580;-47
2022/04/13 06:36:26;;;;;;;;;65.25;51.00;;;;;;;;5076402;27;51196;-45
2022/04/13 06:39:11;;;;;;;;;66.50;53.00;;;;;;;;5077320;27;51032;-45
2022/04/13 06:41:55;;;;;;;;;66.00;52.00;;;;;;;;5078722;27;51158;-47
2022/04/13 06:44:40;;;;;;;;;78.25;62.75;;;;;;;;5079046;27;51207;-46
2022/04/13 06:47:24;;;;;;;;;70.00;58.75;;;;;;;;5077767;27;51647;-48
2022/04/13 06:50:09;;;;;;;;;65.25;49.50;;;;;;;;5076758;27;51044;-45
2022/04/13 06:52:54;;;;;;;;;62.25;49.00;;;;;;;;5079716;27;51193;-44
2022/04/13 06:55:39;;;;;;;;;66.00;50.50;;;;;;;;5078867;27;51142;-45
2022/04/13 06:58:24;;;;;;;;;57.75;46.00;;;;;;;;5078742;27;51919;-46
2022/04/13 07:01:09;;;;;;;;;55.25;43.50;;;;;;;;5071585;27;51209;-45
2022/04/13 07:03:58;;;;;;;;;52.50;40.50;;;;;;;;5062452;27;51083;-46
2022/04/13 07:06:45;;;;;;;;;49.50;38.50;;;;;;;;5073427;27;52286;-48
2022/04/13 07:09:31;;;;;;;;;36.25;30.75;;;;;;;;5077725;27;51130;-46
2022/04/13 07:12:17;;;;;;;;;41.75;33.75;;;;;;;;5078937;27;51706;-44
2022/04/13 07:15:01;;;;;;;;;36.00;32.00;;;;;;;;5078173;27;51144;-48
2022/04/13 07:17:49;;;;;;;;;34.25;28.75;;;;;;;;5078180;27;51252;-46
2022/04/13 07:20:34;;;;;;;;;28.25;26.25;;;;;;;;5075655;27;51048;-45
2022/04/13 07:23:19;;;;;;;;;30.00;26.00;;;;;;;;5071161;27;51753;-48
2022/04/13 07:26:06;;;;;;;;;27.75;27.25;;;;;;;;5070974;27;51169;-46
2022/04/13 07:28:53;;;;;;;;;33.25;30.00;;;;;;;;5067565;27;51150;-47
2022/04/13 07:31:40;;;;;;;;;44.25;36.00;;;;;;;;5077050;27;51481;-46
2022/04/13 07:34:25;;;;;;;;;46.00;35.00;;;;;;;;5077759;27;51184;-45
2022/04/13 07:37:12;;;;;;;;;47.00;39.00;;;;;;;;5074481;27;51094;-47
2022/04/13 07:40:03;;;;;;;;;53.00;42.00;;;;;;;;5076448;27;51386;-45
2022/04/13 07:42:49;;;;;;;;;46.75;36.75;;;;;;;;5079150;27;51169;-44
2022/04/13 07:45:33;;;;;;;;;37.25;30.50;;;;;;;;5079076;28;51370;-45
2022/04/13 07:48:18;;;;;;;;;36.25;30.50;;;;;;;;5077672;28;51344;-46
2022/04/13 07:51:04;;;;;;;;;38.25;30.25;;;;;;;;5074189;28;52141;-47
2022/04/13 07:53:55;;;;;;;;;34.75;30.00;;;;;;;;5074258;28;51127;-47
2022/04/13 07:56:41;;;;;;;;;38.50;31.75;;;;;;;;5074395;28;51505;-46
2022/04/13 07:59:27;;;;;;;;;30.00;29.25;;;;;;;;5076775;28;51537;-51
2022/04/13 08:02:15;;;;;;;;;40.50;32.00;;;;;;;;5076274;28;51542;-46
2022/04/13 08:05:06;;;;;;;;;32.00;28.75;;;;;;;;5078417;28;51134;-46
2022/04/13 08:07:50;;;;;;;;;34.75;28.00;;;;;;;;5077112;28;51170;-46
2022/04/13 08:10:34;;;;;;;;;26.50;23.75;;;;;;;;5074198;28;51327;-45
2022/04/13 08:13:29;;;;;;;;;31.75;30.25;;;;;;;;5078961;28;51072;-47
2022/04/13 08:16:15;;;;;;;;;38.50;33.00;;;;;;;;5078877;28;51172;-44
2022/04/13 08:19:20;;;;;;;;;38.25;31.25;;;;;;;;5079352;27;51150;-46
2022/04/13 08:22:11;;;;;;;;;38.50;32.00;;;;;;;;5082579;27;51237;-48
2022/04/13 08:24:58;;;;;;;;;40.00;30.00;;;;;;;;5082969;27;51067;-45
2022/04/13 08:27:48;;;;;;;;;46.50;33.00;;;;;;;;5082672;27;51581;-48
2022/04/13 08:30:44;;;;;;;;;42.50;36.25;;;;;;;;5082441;27;51343;-44
2022/04/13 08:33:32;;;;;;;;;50.25;42.00;;;;;;;;5082784;27;51164;-46
2022/04/13 08:36:26;;;;;;;;;46.00;37.50;;;;;;;;5082688;27;51153;-49
2022/04/13 08:39:14;;;;;;;;;46.25;38.50;;;;;;;;5082715;27;51213;-51
2022/04/13 08:41:59;;;;;;;;;46.25;37.00;;;;;;;;5082332;27;51127;-47
2022/04/13 08:44:52;;;;;;;;;48.50;38.75;;;;;;;;5082638;27;51067;-45
2022/04/13 08:47:44;;;;;;;;;37.00;31.50;;;;;;;;5082210;27;51094;-45
2022/04/13 08:50:30;;;;;;;;;42.75;36.00;;;;;;;;5081883;27;51096;-46
2022/04/13 08:53:35;;;;;;;;;46.00;36.75;;;;;;;;5082399;27;51105;-48
2022/04/13 08:56:20;;;;;;;;;41.00;35.00;;;;;;;;5082289;27;51200;-44
2022/04/13 08:59:18;;;;;;;;;39.25;29.75;;;;;;;;5082351;27;51139;-44
2022/04/13 09:02:33;;;;;;;;;39.00;30.00;;;;;;;;5081988;27;52145;-46
2022/04/13 09:05:23;;;;;;;;;31.00;28.75;;;;;;;;5019671;27;51595;-45
2022/04/13 09:08:22;;;;;;;;;28.75;26.50;;;;;;;;5080524;27;51067;-48
2022/04/13 09:11:06;;;;;;;;;27.50;23.50;;;;;;;;5082121;27;51153;-45
2022/04/13 09:13:52;;;;;;;;;28.75;26.00;;;;;;;;5081685;27;51469;-46
2022/04/13 09:16:43;;;;;;;;;26.25;26.25;;;;;;;;5082050;27;51047;-47
2022/04/13 09:19:39;;;;;;;;;31.00;24.75;;;;;;;;5082026;27;51585;-45
2022/04/13 09:22:39;;;;;;;;;31.00;26.75;;;;;;;;5081784;27;51194;-46
2022/04/13 09:25:23;;;;;;;;;35.25;29.75;;;;;;;;5080793;27;51067;-46
2022/04/13 09:28:20;;;;;;;;;32.00;28.25;;;;;;;;5081164;27;51566;-49
2022/04/13 09:31:15;;;;;;;;;30.00;25.75;;;;;;;;5081513;27;51203;-46
2022/04/13 09:34:00;;;;;;;;;33.25;26.75;;;;;;;;5081416;27;51163;-49
2022/04/13 09:36:46;;;;;;;;;26.50;21.50;;;;;;;;5082141;27;51059;-45
2022/04/13 09:39:32;;;;;;;;;13.25;11.00;;;;;;;;5081245;27;51542;-49
2022/04/13 09:42:28;;;;;;;;;9.75;7.50;;;;;;;;5081655;27;51220;-49
2022/04/13 09:45:17;;;;;;;;;5.75;4.00;;;;;;;;5081813;27;51421;-45
2022/04/13 09:48:05;;;;;;;;;7.25;7.00;;;;;;;;5081160;27;50996;-50
2022/04/13 09:50:52;;;;;;;;;8.25;7.00;;;;;;;;5066169;27;51202;-46
2022/04/13 09:53:45;;;;;;;;;9.00;5.00;;;;;;;;5081263;27;51201;-47
2022/04/13 09:56:38;;;;;;;;;5.25;2.75;;;;;;;;5081194;27;51113;-49
2022/04/13 09:59:30;;;;;;;;;6.25;4.25;;;;;;;;5079465;27;51148;-47
2022/04/13 10:02:15;;;;;;;;;8.50;4.00;;;;;;;;5080044;27;51127;-47
2022/04/13 10:05:01;;;;;;;;;8.00;3.00;;;;;;;;5080771;27;51126;-47
2022/04/13 10:08:00;;;;;;;;;7.50;4.00;;;;;;;;5080927;27;51163;-47
2022/04/13 10:10:56;;;;;;;;;4.25;3.75;;;;;;;;4978909;28;51153;-47
2022/04/13 10:13:44;;;;;;;;;4.00;3.75;;;;;;;;4964731;28;51188;-47
2022/04/13 10:16:34;;;;;;;;;3.25;3.25;;;;;;;;4978647;28;51091;-49
2022/04/13 10:19:20;;;;;;;;;4.50;2.75;;;;;;;;4978309;28;51220;-48
2022/04/13 10:22:06;;;;;;;;;1.75;0.25;;;;;;;;4978561;28;51453;-45
2022/04/13 10:24:51;;;;;;;;;9.75;2.50;;;;;;;;4977941;28;51379;-45
2022/04/13 10:27:36;;;;;;;;;10.50;4.00;;;;;;;;4978491;28;51213;-46
2022/04/13 10:30:24;;;;;;;;;8.75;2.00;;;;;;;;4978207;28;51104;-46
2022/04/13 10:33:10;;;;;;;;;3.00;3.00;;;;;;;;4964476;28;51086;-46
2022/04/13 10:35:56;;;;;;;;;2.50;2.50;;;;;;;;4978476;28;51183;-48
2022/04/13 10:38:41;;;;;;;;;4.00;2.50;;;;;;;;4977812;28;51913;-48
2022/04/13 10:41:27;;;;;;;;;4.00;3.00;;;;;;;;4978569;28;51076;-50
2022/04/13 10:44:13;;;;;;;;;5.00;2.50;;;;;;;;4977558;28;51472;-46
2022/04/13 10:47:03;;;;;;;;;3.50;3.50;;;;;;;;4995102;27;51456;-45
2022/04/13 10:50:03;;;;;;;;;7.50;5.75;;;;;;;;5064471;27;51174;-48
2022/04/13 10:53:20;;;;;;;;;5.00;3.00;;;;;;;;5080476;27;51095;-47
2022/04/13 10:56:26;;;;;;;;;7.25;5.00;;;;;;;;5079632;27;51460;-47
2022/04/13 10:59:11;;;;;;;;;5.00;5.00;;;;;;;;5080220;27;51115;-48
2022/04/13 11:02:02;;;;;;;;;9.75;5.50;;;;;;;;5080449;27;51473;-44
2022/04/13 11:04:48;;;;;;;;;5.50;3.50;;;;;;;;5079640;27;51151;-46
2022/04/13 11:07:40;;;;;;;;;4.75;2.50;;;;;;;;5080196;27;51072;-48
2022/04/13 11:10:25;;;;;;;;;2.75;2.75;;;;;;;;5080187;27;51083;-47
2022/04/13 11:13:17;;;;;;;;;7.50;3.75;;;;;;;;5079969;27;51464;-49
2022/04/13 11:16:17;;;;;;;;;4.50;3.00;;;;;;;;5079424;27;51086;-46
2022/04/13 11:19:10;;;;;;;;;5.00;4.75;;;;;;;;5079053;27;51153;-48
2022/04/13 11:21:54;;;;;;;;;4.25;3.25;;;;;;;;5079489;27;51438;-46
2022/04/13 11:24:56;;;;;;;;;7.50;4.00;;;;;;;;5079672;27;51053;-47
2022/04/13 11:27:53;;;;;;;;;7.25;4.75;;;;;;;;5079873;27;51441;-50
2022/04/13 11:30:58;;;;;;;;;5.00;4.25;;;;;;;;5079499;27;51177;-48
2022/04/13 11:34:05;;;;;;;;;6.25;3.00;;;;;;;;5076890;27;51173;-46
2022/04/13 11:36:57;;;;;;;;;3.00;2.50;;;;;;;;5079473;27;51175;-46
2022/04/13 11:39:56;;;;;;;;;5.25;4.25;;;;;;;;5076385;27;51145;-47
2022/04/13 11:42:42;;;;;;;;;4.75;4.75;;;;;;;;5079516;27;51161;-47
2022/04/13 11:45:29;;;;;;;;;3.50;3.00;;;;;;;;5080050;28;51166;-45
2022/04/13 11:48:33;;;;;;;;;5.25;2.50;;;;;;;;5078760;28;51102;-47
2022/04/13 11:51:34;;;;;;;;;2.50;2.50;;;;;;;;5079113;28;51011;-46
2022/04/13 11:54:18;;;;;;;;;2.25;1.25;;;;;;;;5081211;27;51127;-50
2022/04/13 11:57:23;;;;;;;;;3.00;1.50;;;;;;;;5083414;27;51149;-48
2022/04/13 12:00:08;;;;;;;;;5.75;2.00;;;;;;;;5083629;27;51128;-46
2022/04/13 12:02:55;;;;;;;;;3.50;2.00;;;;;;;;5083418;27;51141;-47
2022/04/13 12:05:45;;;;;;;;;6.25;2.75;;;;;;;;5068216;27;51360;-46
2022/04/13 12:08:31;;;;;;;;;2.25;1.00;;;;;;;;5083465;27;51071;-46
2022/04/13 12:11:20;;;;;;;;;3.25;2.25;;;;;;;;5083428;27;51201;-49
2022/04/13 12:14:15;;;;;;;;;4.75;2.00;;;;;;;;5083051;27;51495;-47
2022/04/13 12:17:04;;;;;;;;;3.25;3.25;;;;;;;;5083533;27;51033;-46
2022/04/13 12:19:52;;;;;;;;;4.00;3.50;;;;;;;;5083456;27;51360;-49
2022/04/13 12:22:36;;;;;;;;;1.25;1.25;;;;;;;;5083238;27;51170;-47
2022/04/13 12:25:43;;;;;;;;;4.75;3.00;;;;;;;;5082887;27;51123;-48
2022/04/13 12:28:27;;;;;;;;;3.75;1.25;;;;;;;;5082953;27;51091;-45
2022/04/13 12:31:13;;;;;;;;;2.00;2.00;;;;;;;;5083129;27;51043;-45
2022/04/13 12:34:06;;;;;;;;;1.75;1.75;;;;;;;;5082999;27;51100;-49
2022/04/13 12:37:00;;;;;;;;;1.00;0.75;;;;;;;;5068921;27;51248;-47
2022/04/13 12:39:52;;;;;;;;;3.25;1.75;;;;;;;;5082835;27;51421;-47
2022/04/13 12:43:09;;;;;;;;;1.25;1.25;;;;;;;;5019924;28;51160;-47
2022/04/13 12:46:01;;;;;;;;;2.75;1.50;;;;;;;;5019326;28;51476;-47
2022/04/13 12:48:54;;;;;;;;;4.00;2.00;;;;;;;;5018804;28;51310;-45
2022/04/13 12:51:55;;;;;;;;;4.00;1.00;;;;;;;;5003335;28;51211;-46
2022/04/13 12:54:42;;;;;;;;;4.00;4.00;;;;;;;;5018902;28;51271;-49
2022/04/13 12:57:41;;;;;;;;;3.50;1.50;;;;;;;;5015656;28;51496;-46
2022/04/13 13:00:43;;;;;;;;;0.75;0.50;;;;;;;;5016846;28;51234;-49
2022/04/13 13:03:33;;;;;;;;;5.00;2.25;;;;;;;;5017515;28;51114;-48
2022/04/13 13:06:20;;;;;;;;;2.50;1.00;;;;;;;;4999965;28;51530;-46
2022/04/13 13:09:06;;;;;;;;;4.00;2.00;;;;;;;;5000529;28;51335;-49
2022/04/13 13:12:00;;;;;;;;;4.00;3.00;;;;;;;;5018099;28;51377;-45
2022/04/13 13:14:52;;;;;;;;;4.50;2.25;;;;;;;;5003056;28;51289;-46
2022/04/13 13:17:48;;;;;;;;;6.50;2.00;;;;;;;;5026690;27;51076;-45
2022/04/13 13:20:36;;;;;;;;;2.25;0.00;;;;;;;;5082067;27;51199;-45
2022/04/13 13:23:27;;;;;;;;;4.00;2.00;;;;;;;;5082075;27;51192;-47
2022/04/13 13:26:23;;;;;;;;;6.25;1.00;;;;;;;;5081985;27;51107;-46
2022/04/13 13:29:09;;;;;;;;;2.00;1.50;;;;;;;;5082500;27;51091;-49
2022/04/13 13:31:56;;;;;;;;;2.25;1.50;;;;;;;;5081871;27;51492;-46
2022/04/13 13:34:49;;;;;;;;;3.00;1.00;;;;;;;;5082262;27;51120;-47
2022/04/13 13:37:33;;;;;;;;;1.00;1.00;;;;;;;;5082292;27;51010;-46
2022/04/13 13:40:37;;;;;;;;;4.75;0.00;;;;;;;;5082183;27;51103;-47
2022/04/13 13:43:26;;;;;;;;;2.25;0.50;;;;;;;;5081711;27;51475;-51
2022/04/13 13:46:19;;;;;;;;;2.50;1.75;;;;;;;;5081677;27;51023;-46
2022/04/13 13:49:25;;;;;;;;;3.00;0.75;;;;;;;;5081697;27;51409;-48
2022/04/13 13:52:09;;;;;;;;;3.50;2.00;;;;;;;;5081475;27;51112;-50
2022/04/13 13:54:54;;;;;;;;;3.50;2.00;;;;;;;;5076297;27;51047;-48
2022/04/13 13:57:39;;;;;;;;;0.25;0.25;;;;;;;;5081689;27;51158;-49
2022/04/13 14:00:26;;;;;;;;;8.50;3.00;;;;;;;;5081561;27;51202;-48
2022/04/13 14:03:18;;;;;;;;;3.75;0.75;;;;;;;;5081106;27;51481;-49
2022/04/13 14:06:15;;;;;;;;;0.25;0.25;;;;;;;;5081002;27;51067;-50
2022/04/13 14:09:13;;;;;;;;;3.75;1.75;;;;;;;;5080943;27;51351;-48
2022/04/13 14:11:59;;;;;;;;;1.75;1.00;;;;;;;;5081445;27;51444;-46
2022/04/13 14:14:43;;;;;;;;;3.25;1.00;;;;;;;;5079381;27;51170;-47
2022/04/13 14:17:29;;;;;;;;;5.25;2.00;;;;;;;;5078424;27;51137;-49
2022/04/13 14:20:15;;;;;;;;;5.75;0.25;;;;;;;;5073630;27;51170;-49
2022/04/13 14:23:15;;;;;;;;;5.00;2.00;;;;;;;;5078160;27;51199;-48
2022/04/13 14:26:09;;;;;;;;;2.00;0.50;;;;;;;;5077435;27;51091;-48
2022/04/13 14:29:04;;;;;;;;;4.00;1.00;;;;;;;;5079792;27;51110;-47
2022/04/13 14:31:49;;;;;;;;;4.50;0.75;;;;;;;;5079004;27;51129;-47
2022/04/13 14:34:33;;;;;;;;;0.50;0.00;;;;;;;;5079059;27;51355;-48
2022/04/13 14:37:22;;;;;;;;;0.00;0.00;;;;;;;;5073602;27;51177;-46
2022/04/13 14:40:07;;;;;;;;;2.75;0.75;;;;;;;;5079456;27;51219;-47
2022/04/13 14:42:53;;;;;;;;;1.75;0.75;;;;;;;;5075792;27;51087;-49
2022/04/13 14:45:44;;;;;;;;;2.25;1.75;;;;;;;;5074872;27;51063;-47
2022/04/13 14:48:32;;;;;;;;;2.00;1.00;;;;;;;;5078186;27;51573;-49
2022/04/13 14:51:19;;;;;;;;;4.00;1.75;;;;;;;;5077941;27;51178;-49
2022/04/13 14:54:04;;;;;;;;;4.75;1.00;;;;;;;;5074221;27;51507;-48
2022/04/13 14:56:48;;;;;;;;;2.25;1.50;;;;;;;;5073419;27;51177;-50
2022/04/13 14:59:32;;;;;;;;;1.25;1.25;;;;;;;;5078554;27;51152;-49
2022/04/13 15:02:17;;;;;;;;;3.00;2.00;;;;;;;;5077462;27;51140;-49
2022/04/13 15:05:01;;;;;;;;;2.00;1.00;;;;;;;;5078462;27;51124;-47
2022/04/13 15:07:46;;;;;;;;;4.00;2.25;;;;;;;;5074903;27;51204;-47
2022/04/13 15:10:30;;;;;;;;;1.75;0.75;;;;;;;;5080248;27;51181;-47
2022/04/13 15:13:15;;;;;;;;;5.00;1.00;;;;;;;;5076614;27;51171;-47
2022/04/13 15:16:00;;;;;;;;;0.25;0.00;;;;;;;;5079701;27;51238;-48
2022/04/13 15:18:44;;;;;;;;;4.00;1.50;;;;;;;;5078928;27;51167;-50
2022/04/13 15:21:29;;;;;;;;;3.25;1.50;;;;;;;;5078414;27;51073;-47
2022/04/13 15:24:15;;;;;;;;;2.00;2.00;;;;;;;;5079835;27;51110;-48
2022/04/13 15:26:59;;;;;;;;;2.25;1.25;;;;;;;;5075240;27;51129;-47
2022/04/13 15:29:44;;;;;;;;;2.50;0.00;;;;;;;;5079823;27;51299;-47
2022/04/13 15:32:28;;;;;;;;;1.00;1.00;;;;;;;;5079113;27;51148;-46
2022/04/13 15:35:14;;;;;;;;;3.00;0.50;;;;;;;;5080335;27;51067;-48
2022/04/13 15:37:58;;;;;;;;;3.25;2.75;;;;;;;;5079653;27;51548;-47
2022/04/13 15:40:42;;;;;;;;;3.25;2.75;;;;;;;;5079876;27;51251;-47
2022/04/13 15:43:27;;;;;;;;;3.50;1.00;;;;;;;;5080052;27;51174;-50
2022/04/13 15:46:11;;;;;;;;;6.25;2.00;;;;;;;;5080068;27;51126;-48
2022/04/13 15:48:56;;;;;;;;;5.00;1.25;;;;;;;;5079274;28;51040;-50
2022/04/13 15:51:45;;;;;;;;;3.00;0.75;;;;;;;;5079391;28;50996;-48
2022/04/13 15:54:29;;;;;;;;;2.25;2.25;;;;;;;;5079699;28;51361;-48
2022/04/13 15:57:14;;;;;;;;;4.00;2.00;;;;;;;;5079428;28;51161;-46
2022/04/13 15:59:58;;;;;;;;;4.50;1.50;;;;;;;;5079698;28;51442;-47
2022/04/13 16:02:46;;;;;;;;;3.50;3.00;;;;;;;;5079279;28;51396;-52
2022/04/13 16:05:31;;;;;;;;;2.00;2.00;;;;;;;;5079622;28;51234;-48
2022/04/13 16:08:15;;;;;;;;;1.25;0.00;;;;;;;;5079697;28;51071;-46
2022/04/13 16:11:01;;;;;;;;;6.00;3.00;;;;;;;;5079758;28;51182;-51
2022/04/13 16:13:46;;;;;;;;;3.25;2.50;;;;;;;;5079322;28;51130;-51
2022/04/13 16:16:30;;;;;;;;;5.50;4.00;;;;;;;;5079505;28;51173;-45
2022/04/13 16:19:14;;;;;;;;;3.75;2.75;;;;;;;;5076599;28;51407;-50
2022/04/13 16:21:59;;;;;;;;;8.00;7.50;;;;;;;;5078957;28;51075;-49
2022/04/13 16:24:43;;;;;;;;;6.50;3.50;;;;;;;;5079385;28;51118;-49
2022/04/13 16:27:28;;;;;;;;;7.00;4.00;;;;;;;;5079092;28;51464;-47
2022/04/13 16:30:12;;;;;;;;;1.75;1.75;;;;;;;;5079436;28;51205;-52